sensor_id;sensor_type;location;lat;lon;timestamp;pressure;altitude;pressure_sealevel;temperature;humidity
48041;BME280;33815;48.386;11.738;2023-04-05T00:00:18;97010.28;;;-5.08;100.00
48041;BME280;33815;48.386;11.738;2023-04-05T00:02:44;97010.09;;;-5.02;100.00
48041;BME280;33815;48.386;11.738;2023-04-05T00:05:10;97010.09;;;-5.02;100.00
48041;BME280;33815;48.386;11.738;2023-04-05T00:07:36;96966.84;;;-5.30;100.00
48041;BME280;33815;48.386;11.738;2023-04-05T00:10:02;97002.63;;;-5.07;100.00
48041;BME280;33815;48.386;11.738;2023-04-05T00:12:28;96999.25;;;-5.07;100.00
48041;BME280;33815;48.386;11.738;2023-04-05T00:14:53;97006.72;;;-5.03;100.00
48041;BME280;33815;48.386;11.738;2023-04-05T00:17:18;96996.44;;;-4.98;100.00
48041;BME280;33815;48.386;11.738;2023-04-05T00:19:44;96984.47;;;-4.94;100.00
48041;BME280;33815;48.386;11.738;2023-04-05T00:22:09;96991.94;;;-4.90;100.00
48041;BME280;33815;48.386;11.738;2023-04-05T00:24:36;96994.34;;;-4.84;100.00
48041;BME280;33815;48.386;11.738;2023-04-05T00:27:03;96951.63;;;-5.01;100.00
48041;BME280;33815;48.386;11.738;2023-04-05T00:29:28;96991.44;;;-4.73;100.00
48041;BME280;33815;48.386;11.738;2023-04-05T00:31:54;96992.00;;;-4.63;100.00
48041;BME280;33815;48.386;11.738;2023-04-05T00:34:20;96989.44;;;-4.61;100.00
48041;BME280;33815;48.386;11.738;2023-04-05T00:36:45;96984.19;;;-4.57;100.00
48041;BME280;33815;48.386;11.738;2023-04-05T00:39:10;96942.47;;;-4.78;100.00
48041;BME280;33815;48.386;11.738;2023-04-05T00:41:36;96978.09;;;-4.51;100.00
48041;BME280;33815;48.386;11.738;2023-04-05T00:44:01;96987.28;;;-4.47;100.00
48041;BME280;33815;48.386;11.738;2023-04-05T00:46:28;96978.78;;;-4.46;100.00
48041;BME280;33815;48.386;11.738;2023-04-05T00:48:53;96981.28;;;-4.44;100.00
48041;BME280;33815;48.386;11.738;2023-04-05T00:51:19;96982.06;;;-4.42;100.00
48041;BME280;33815;48.386;11.738;2023-04-05T00:53:45;96953.41;;;-4.49;100.00
48041;BME280;33815;48.386;11.738;2023-04-05T00:56:12;96973.06;;;-4.26;100.00
48041;BME280;33815;48.386;11.738;2023-04-05T00:58:39;96971.38;;;-4.27;100.00
48041;BME280;33815;48.386;11.738;2023-04-05T01:01:10;96977.34;;;-4.28;100.00
48041;BME280;33815;48.386;11.738;2023-04-05T01:03:38;96973.75;;;-4.21;100.00
48041;BME280;33815;48.386;11.738;2023-04-05T01:06:21;96968.72;;;-4.24;100.00
48041;BME280;33815;48.386;11.738;2023-04-05T01:09:12;96967.47;;;-4.10;100.00
48041;BME280;33815;48.386;11.738;2023-04-05T01:11:41;96974.41;;;-4.16;100.00
48041;BME280;33815;48.386;11.738;2023-04-05T01:14:07;96963.59;;;-4.22;100.00
48041;BME280;33815;48.386;11.738;2023-04-05T01:16:32;96960.97;;;-4.19;100.00
48041;BME280;33815;48.386;11.738;2023-04-05T01:18:57;96956.66;;;-4.17;100.00
48041;BME280;33815;48.386;11.738;2023-04-05T01:26:58;96950.88;;;-4.22;100.00
48041;BME280;33815;48.386;11.738;2023-04-05T01:29:58;96946.19;;;-4.35;100.00
48041;BME280;33815;48.386;11.738;2023-04-05T01:32:45;96953.09;;;-4.38;100.00
48041;BME280;33815;48.386;11.738;2023-04-05T01:38:10;96941.22;;;-4.39;100.00
48041;BME280;33815;48.386;11.738;2023-04-05T01:40:36;96938.69;;;-4.39;100.00
48041;BME280;33815;48.386;11.738;2023-04-05T01:43:11;96939.72;;;-4.45;100.00
48041;BME280;33815;48.386;11.738;2023-04-05T01:45:36;96937.34;;;-4.50;100.00
48041;BME280;33815;48.386;11.738;2023-04-05T01:48:02;96935.66;;;-4.51;100.00
48041;BME280;33815;48.386;11.738;2023-04-05T01:50:27;96937.56;;;-4.57;100.00
48041;BME280;33815;48.386;11.738;2023-04-05T01:52:52;96928.28;;;-4.58;100.00
48041;BME280;33815;48.386;11.738;2023-04-05T01:55:18;96929.06;;;-4.56;100.00
48041;BME280;33815;48.386;11.738;2023-04-05T01:57:43;96933.28;;;-4.55;100.00
48041;BME280;33815;48.386;11.738;2023-04-05T02:00:09;96928.25;;;-4.57;100.00
48041;BME280;33815;48.386;11.738;2023-04-05T02:02:34;96925.59;;;-4.54;100.00
48041;BME280;33815;48.386;11.738;2023-04-05T02:04:59;96927.31;;;-4.54;100.00
48041;BME280;33815;48.386;11.738;2023-04-05T02:07:25;96927.38;;;-4.56;100.00
48041;BME280;33815;48.386;11.738;2023-04-05T02:09:51;96929.06;;;-4.56;100.00
48041;BME280;33815;48.386;11.738;2023-04-05T02:12:16;96919.84;;;-4.60;100.00
48041;BME280;33815;48.386;11.738;2023-04-05T02:14:41;96920.75;;;-4.61;100.00
48041;BME280;33815;48.386;11.738;2023-04-05T02:17:06;96925.38;;;-4.48;100.00
48041;BME280;33815;48.386;11.738;2023-04-05T02:19:32;96928.03;;;-4.51;100.00
48041;BME280;33815;48.386;11.738;2023-04-05T02:22:04;96913.84;;;-4.58;100.00
48041;BME280;33815;48.386;11.738;2023-04-05T02:24:30;96913.84;;;-4.58;100.00
48041;BME280;33815;48.386;11.738;2023-04-05T02:26:55;96911.41;;;-4.61;100.00
48041;BME280;33815;48.386;11.738;2023-04-05T02:29:20;96916.44;;;-4.59;100.00
48041;BME280;33815;48.386;11.738;2023-04-05T02:31:45;96915.56;;;-4.58;100.00
48041;BME280;33815;48.386;11.738;2023-04-05T02:34:11;96907.84;;;-4.55;100.00
48041;BME280;33815;48.386;11.738;2023-04-05T02:36:36;96909.56;;;-4.57;100.00
48041;BME280;33815;48.386;11.738;2023-04-05T02:39:02;96910.38;;;-4.55;100.00
48041;BME280;33815;48.386;11.738;2023-04-05T02:41:27;96914.59;;;-4.54;100.00
48041;BME280;33815;48.386;11.738;2023-04-05T02:43:52;96862.59;;;-4.72;100.00
48041;BME280;33815;48.386;11.738;2023-04-05T02:46:17;96904.31;;;-4.51;100.00
48041;BME280;33815;48.386;11.738;2023-04-05T02:48:44;96903.22;;;-4.44;100.00
48041;BME280;33815;48.386;11.738;2023-04-05T02:51:09;96898.03;;;-4.41;100.00
48041;BME280;33815;48.386;11.738;2023-04-05T02:53:35;96894.25;;;-4.29;100.00
48041;BME280;33815;48.386;11.738;2023-04-05T02:56:00;96895.84;;;-4.25;100.00
48041;BME280;33815;48.386;11.738;2023-04-05T02:58:25;96900.66;;;-4.17;100.00
48041;BME280;33815;48.386;11.738;2023-04-05T03:00:51;96895.81;;;-4.00;100.00
48041;BME280;33815;48.386;11.738;2023-04-05T03:03:21;96892.88;;;-3.89;100.00
48041;BME280;33815;48.386;11.738;2023-04-05T03:05:47;96897.88;;;-3.86;100.00
48041;BME280;33815;48.386;11.738;2023-04-05T03:08:14;96896.84;;;-3.80;100.00
48041;BME280;33815;48.386;11.738;2023-04-05T03:10:46;96890.28;;;-3.87;100.00
48041;BME280;33815;48.386;11.738;2023-04-05T03:13:12;96890.28;;;-3.87;100.00
48041;BME280;33815;48.386;11.738;2023-04-05T03:15:38;96903.00;;;-3.87;100.00
48041;BME280;33815;48.386;11.738;2023-04-05T03:18:03;96893.56;;;-3.84;100.00
48041;BME280;33815;48.386;11.738;2023-04-05T03:20:29;96888.41;;;-3.82;100.00
48041;BME280;33815;48.386;11.738;2023-04-05T03:22:54;96885.31;;;-3.90;100.00
48041;BME280;33815;48.386;11.738;2023-04-05T03:25:19;96890.56;;;-3.95;100.00
48041;BME280;33815;48.386;11.738;2023-04-05T03:27:44;96890.56;;;-3.95;100.00
48041;BME280;33815;48.386;11.738;2023-04-05T03:30:10;96861.81;;;-3.99;100.00
48041;BME280;33815;48.386;11.738;2023-04-05T03:32:36;96889.09;;;-3.77;100.00
48041;BME280;33815;48.386;11.738;2023-04-05T03:35:01;96890.09;;;-3.81;100.00
48041;BME280;33815;48.386;11.738;2023-04-05T03:37:26;96887.91;;;-3.92;100.00
48041;BME280;33815;48.386;11.738;2023-04-05T03:39:52;96889.75;;;-3.96;100.00
48041;BME280;33815;48.386;11.738;2023-04-05T03:42:17;96881.16;;;-3.93;100.00
48041;BME280;33815;48.386;11.738;2023-04-05T03:44:42;96891.56;;;-3.99;100.00
48041;BME280;33815;48.386;11.738;2023-04-05T03:47:07;96892.47;;;-4.02;100.00
48041;BME280;33815;48.386;11.738;2023-04-05T03:49:33;96889.78;;;-3.97;100.00
48041;BME280;33815;48.386;11.738;2023-04-05T03:51:58;96888.38;;;-4.06;100.00
48041;BME280;33815;48.386;11.738;2023-04-05T03:54:23;96859.69;;;-4.35;100.00
48041;BME280;33815;48.386;11.738;2023-04-05T03:56:48;96853.63;;;-4.32;100.00
48041;BME280;33815;48.386;11.738;2023-04-05T03:59:14;96888.50;;;-4.09;100.00
48041;BME280;33815;48.386;11.738;2023-04-05T04:01:39;96894.63;;;-4.15;100.00
48041;BME280;33815;48.386;11.738;2023-04-05T04:04:05;96887.75;;;-4.13;100.00
48041;BME280;33815;48.386;11.738;2023-04-05T04:06:30;96896.44;;;-4.18;100.00
48041;BME280;33815;48.386;11.738;2023-04-05T04:08:55;96897.41;;;-4.22;100.00
48041;BME280;33815;48.386;11.738;2023-04-05T04:11:21;96859.28;;;-4.49;100.00
48041;BME280;33815;48.386;11.738;2023-04-05T04:13:46;96893.47;;;-4.31;100.00
48041;BME280;33815;48.386;11.738;2023-04-05T04:16:12;96889.19;;;-4.29;100.00
48041;BME280;33815;48.386;11.738;2023-04-05T04:18:37;96889.56;;;-4.41;100.00
48041;BME280;33815;48.386;11.738;2023-04-05T04:21:02;96822.56;;;-4.67;100.00
48041;BME280;33815;48.386;11.738;2023-04-05T04:23:31;96891.09;;;-4.36;100.00
48041;BME280;33815;48.386;11.738;2023-04-05T04:25:58;96882.88;;;-4.44;100.00
48041;BME280;33815;48.386;11.738;2023-04-05T04:28:25;96880.44;;;-4.47;100.00
48041;BME280;33815;48.386;11.738;2023-04-05T04:30:52;96839.84;;;-4.77;100.00
48041;BME280;33815;48.386;11.738;2023-04-05T04:33:17;96885.88;;;-4.58;100.00
48041;BME280;33815;48.386;11.738;2023-04-05T04:35:44;96884.94;;;-4.55;100.00
48041;BME280;33815;48.386;11.738;2023-04-05T04:38:11;96886.78;;;-4.60;100.00
48041;BME280;33815;48.386;11.738;2023-04-05T04:40:43;96840.91;;;-4.84;100.00
48041;BME280;33815;48.386;11.738;2023-04-05T04:43:14;96881.03;;;-4.66;100.00
48041;BME280;33815;48.386;11.738;2023-04-05T04:45:44;96885.31;;;-4.68;100.00
48041;BME280;33815;48.386;11.738;2023-04-05T04:48:11;96873.63;;;-4.73;100.00
48041;BME280;33815;48.386;11.738;2023-04-05T04:50:38;96885.38;;;-4.69;100.00
48041;BME280;33815;48.386;11.738;2023-04-05T04:53:04;96885.91;;;-4.59;100.00
48041;BME280;33815;48.386;11.738;2023-04-05T04:55:29;96883.28;;;-4.56;100.00
48041;BME280;33815;48.386;11.738;2023-04-05T04:57:57;96881.84;;;-4.65;100.00
48041;BME280;33815;48.386;11.738;2023-04-05T05:00:23;96885.22;;;-4.65;100.00
48041;BME280;33815;48.386;11.738;2023-04-05T05:02:50;96852.75;;;-4.83;100.00
48041;BME280;33815;48.386;11.738;2023-04-05T05:05:16;96882.50;;;-4.58;100.00
48041;BME280;33815;48.386;11.738;2023-04-05T05:07:41;96869.91;;;-4.63;100.00
48041;BME280;33815;48.386;11.738;2023-04-05T05:10:08;96883.31;;;-4.58;100.00
48041;BME280;33815;48.386;11.738;2023-04-05T05:12:33;96843.91;;;-4.71;100.00
48041;BME280;33815;48.386;11.738;2023-04-05T05:14:59;96887.84;;;-4.41;100.00
48041;BME280;33815;48.386;11.738;2023-04-05T05:17:24;96851.13;;;-4.59;100.00
48041;BME280;33815;48.386;11.738;2023-04-05T05:19:50;96882.75;;;-4.41;100.00
48041;BME280;33815;48.386;11.738;2023-04-05T05:22:16;96886.88;;;-4.37;100.00
48041;BME280;33815;48.386;11.738;2023-04-05T05:24:43;96889.13;;;-4.27;100.00
48041;BME280;33815;48.386;11.738;2023-04-05T05:27:08;96888.22;;;-4.26;100.00
48041;BME280;33815;48.386;11.738;2023-04-05T05:29:33;96887.56;;;-4.32;100.00
48041;BME280;33815;48.386;11.738;2023-04-05T05:31:58;96880.03;;;-4.35;100.00
48041;BME280;33815;48.386;11.738;2023-04-05T05:34:24;96887.41;;;-4.27;100.00
48041;BME280;33815;48.386;11.738;2023-04-05T05:36:49;96896.03;;;-4.06;100.00
48041;BME280;33815;48.386;11.738;2023-04-05T05:39:16;96887.56;;;-4.06;100.00
48041;BME280;33815;48.386;11.738;2023-04-05T05:41:43;96891.03;;;-4.09;100.00
48041;BME280;33815;48.386;11.738;2023-04-05T05:44:08;96889.25;;;-4.07;100.00
48041;BME280;33815;48.386;11.738;2023-04-05T05:46:33;96891.72;;;-4.04;100.00
48041;BME280;33815;48.386;11.738;2023-04-05T05:48:59;96896.53;;;-3.96;100.00
48041;BME280;33815;48.386;11.738;2023-04-05T05:51:24;96902.25;;;-3.89;100.00
48041;BME280;33815;48.386;11.738;2023-04-05T05:53:50;96903.47;;;-3.76;100.00
48041;BME280;33815;48.386;11.738;2023-04-05T05:56:16;96903.97;;;-3.66;100.00
48041;BME280;33815;48.386;11.738;2023-04-05T05:58:41;96913.91;;;-3.58;100.00
48041;BME280;33815;48.386;11.738;2023-04-05T06:01:06;96901.16;;;-3.58;100.00
48041;BME280;33815;48.386;11.738;2023-04-05T06:03:32;96904.91;;;-3.45;100.00
48041;BME280;33815;48.386;11.738;2023-04-05T06:05:58;96907.25;;;-3.39;100.00
48041;BME280;33815;48.386;11.738;2023-04-05T06:08:24;96912.06;;;-3.31;100.00
48041;BME280;33815;48.386;11.738;2023-04-05T06:10:51;96908.53;;;-3.05;100.00
48041;BME280;33815;48.386;11.738;2023-04-05T06:13:16;96898.16;;;-3.00;100.00
48041;BME280;33815;48.386;11.738;2023-04-05T06:15:42;96902.56;;;-2.82;99.59
48041;BME280;33815;48.386;11.738;2023-04-05T06:18:08;96901.44;;;-2.74;98.14
48041;BME280;33815;48.386;11.738;2023-04-05T06:20:33;96875.13;;;-2.77;96.03
48041;BME280;33815;48.386;11.738;2023-04-05T06:22:59;96884.72;;;-2.61;95.68
48041;BME280;33815;48.386;11.738;2023-04-05T06:25:25;96882.97;;;-2.38;92.16
48041;BME280;33815;48.386;11.738;2023-04-05T06:27:50;96910.03;;;-2.14;91.65
48041;BME280;33815;48.386;11.738;2023-04-05T06:30:16;96914.25;;;-2.13;91.58
48041;BME280;33815;48.386;11.738;2023-04-05T06:32:41;96918.94;;;-2.02;90.50
48041;BME280;33815;48.386;11.738;2023-04-05T06:35:06;96906.63;;;-1.73;89.16
48041;BME280;33815;48.386;11.738;2023-04-05T06:37:32;96908.66;;;-1.61;88.38
48041;BME280;33815;48.386;11.738;2023-04-05T06:39:58;96906.88;;;-1.40;85.44
48041;BME280;33815;48.386;11.738;2023-04-05T06:42:23;96908.06;;;-1.47;86.46
48041;BME280;33815;48.386;11.738;2023-04-05T06:44:48;96906.47;;;-1.11;85.63
48041;BME280;33815;48.386;11.738;2023-04-05T06:47:14;96911.09;;;-1.19;85.55
48041;BME280;33815;48.386;11.738;2023-04-05T06:49:39;96875.84;;;-1.13;82.96
48041;BME280;33815;48.386;11.738;2023-04-05T06:52:04;96912.69;;;-0.98;81.85
48041;BME280;33815;48.386;11.738;2023-04-05T06:54:36;96908.94;;;-0.91;82.74
48041;BME280;33815;48.386;11.738;2023-04-05T06:57:01;96909.44;;;-0.65;81.00
48041;BME280;33815;48.386;11.738;2023-04-05T06:59:27;96909.66;;;-0.52;82.86
48041;BME280;33815;48.386;11.738;2023-04-05T07:01:54;96849.13;;;-0.71;78.62
48041;BME280;33815;48.386;11.738;2023-04-05T07:04:19;96898.84;;;-0.40;78.23
48041;BME280;33815;48.386;11.738;2023-04-05T07:06:44;96895.22;;;-0.36;78.40
48041;BME280;33815;48.386;11.738;2023-04-05T07:09:09;96909.69;;;-0.17;78.07
48041;BME280;33815;48.386;11.738;2023-04-05T07:11:35;96911.28;;;-0.14;75.63
48041;BME280;33815;48.386;11.738;2023-04-05T07:14:00;96908.31;;;0.11;75.22
48041;BME280;33815;48.386;11.738;2023-04-05T07:16:25;96907.94;;;0.19;74.51
48041;BME280;33815;48.386;11.738;2023-04-05T07:18:51;96904.69;;;0.15;74.95
48041;BME280;33815;48.386;11.738;2023-04-05T07:21:16;96873.94;;;0.15;73.95
48041;BME280;33815;48.386;11.738;2023-04-05T07:23:41;96896.13;;;0.49;74.88
48041;BME280;33815;48.386;11.738;2023-04-05T07:26:07;96900.91;;;0.56;71.68
48041;BME280;33815;48.386;11.738;2023-04-05T07:28:33;96894.53;;;0.63;70.21
48041;BME280;33815;48.386;11.738;2023-04-05T07:31:00;96894.81;;;0.90;69.02
48041;BME280;33815;48.386;11.738;2023-04-05T07:33:25;96887.34;;;1.33;66.23
48041;BME280;33815;48.386;11.738;2023-04-05T07:35:54;96896.41;;;1.85;67.00
48041;BME280;33815;48.386;11.738;2023-04-05T07:38:21;96886.56;;;3.35;61.60
48041;BME280;33815;48.386;11.738;2023-04-05T07:40:50;96862.63;;;4.50;53.36
48041;BME280;33815;48.386;11.738;2023-04-05T07:43:17;96854.66;;;5.03;51.25
48041;BME280;33815;48.386;11.738;2023-04-05T07:45:42;96861.63;;;5.62;51.38
48041;BME280;33815;48.386;11.738;2023-04-05T07:48:07;96854.56;;;5.05;48.41
48041;BME280;33815;48.386;11.738;2023-04-05T07:50:33;96864.31;;;4.51;53.05
48041;BME280;33815;48.386;11.738;2023-04-05T07:52:59;96868.03;;;4.47;49.98
48041;BME280;33815;48.386;11.738;2023-04-05T07:55:24;96869.91;;;4.45;49.56
48041;BME280;33815;48.386;11.738;2023-04-05T07:57:51;96884.75;;;4.28;54.41
48041;BME280;33815;48.386;11.738;2023-04-05T08:00:18;96882.91;;;4.18;53.12
48041;BME280;33815;48.386;11.738;2023-04-05T08:02:44;96844.41;;;4.15;50.89
48041;BME280;33815;48.386;11.738;2023-04-05T08:05:09;96881.34;;;4.02;51.67
48041;BME280;33815;48.386;11.738;2023-04-05T08:07:34;96867.69;;;3.74;50.88
48041;BME280;33815;48.386;11.738;2023-04-05T08:10:00;96878.88;;;3.48;51.00
48041;BME280;33815;48.386;11.738;2023-04-05T08:12:25;96884.53;;;3.40;53.95
48041;BME280;33815;48.386;11.738;2023-04-05T08:14:51;96885.31;;;3.28;55.28
48041;BME280;33815;48.386;11.738;2023-04-05T08:17:16;96887.47;;;3.34;53.66
48041;BME280;33815;48.386;11.738;2023-04-05T08:19:42;96882.31;;;3.34;54.40
48041;BME280;33815;48.386;11.738;2023-04-05T08:22:07;96884.06;;;3.60;53.36
48041;BME280;33815;48.386;11.738;2023-04-05T08:24:32;96875.50;;;3.60;52.74
48041;BME280;33815;48.386;11.738;2023-04-05T08:26:58;96879.78;;;4.00;53.16
48041;BME280;33815;48.386;11.738;2023-04-05T08:29:23;96880.31;;;3.92;54.82
48041;BME280;33815;48.386;11.738;2023-04-05T08:31:48;96868.25;;;4.31;50.86
48041;BME280;33815;48.386;11.738;2023-04-05T08:34:14;96865.56;;;4.33;50.94
48041;BME280;33815;48.386;11.738;2023-04-05T08:36:39;96866.78;;;4.40;49.79
48041;BME280;33815;48.386;11.738;2023-04-05T08:39:04;96862.13;;;4.58;49.79
48041;BME280;33815;48.386;11.738;2023-04-05T08:41:35;96860.16;;;4.61;50.85
48041;BME280;33815;48.386;11.738;2023-04-05T08:44:03;96858.22;;;4.89;49.25
48041;BME280;33815;48.386;11.738;2023-04-05T08:46:30;96835.06;;;4.63;48.65
48041;BME280;33815;48.386;11.738;2023-04-05T08:48:57;96856.38;;;4.91;49.97
48041;BME280;33815;48.386;11.738;2023-04-05T08:51:23;96848.00;;;4.88;46.58
48041;BME280;33815;48.386;11.738;2023-04-05T08:53:50;96855.94;;;4.97;50.24
48041;BME280;33815;48.386;11.738;2023-04-05T08:56:19;96844.22;;;5.05;45.67
48041;BME280;33815;48.386;11.738;2023-04-05T08:58:51;96862.22;;;5.66;49.30
48041;BME280;33815;48.386;11.738;2023-04-05T09:01:20;96850.34;;;5.63;46.37
48041;BME280;33815;48.386;11.738;2023-04-05T09:03:45;96851.25;;;5.87;46.30
48041;BME280;33815;48.386;11.738;2023-04-05T09:06:14;96842.75;;;5.73;45.29
48041;BME280;33815;48.386;11.738;2023-04-05T09:08:40;96821.22;;;5.61;47.06
48041;BME280;33815;48.386;11.738;2023-04-05T09:11:05;96846.72;;;6.02;48.01
48041;BME280;33815;48.386;11.738;2023-04-05T09:13:30;96840.56;;;5.91;45.23
48041;BME280;33815;48.386;11.738;2023-04-05T09:15:56;96840.63;;;6.59;45.49
48041;BME280;33815;48.386;11.738;2023-04-05T09:18:22;96838.25;;;6.79;48.27
48041;BME280;33815;48.386;11.738;2023-04-05T09:20:47;96830.97;;;6.50;43.37
48041;BME280;33815;48.386;11.738;2023-04-05T09:23:12;96827.06;;;6.78;44.03
48041;BME280;33815;48.386;11.738;2023-04-05T09:25:39;96829.25;;;6.94;42.76
48041;BME280;33815;48.386;11.738;2023-04-05T09:28:08;96828.66;;;6.36;43.34
48041;BME280;33815;48.386;11.738;2023-04-05T09:30:34;96843.44;;;6.11;46.28
48041;BME280;33815;48.386;11.738;2023-04-05T09:33:01;96837.06;;;6.72;43.63
48041;BME280;33815;48.386;11.738;2023-04-05T09:35:30;96807.28;;;5.87;41.31
48041;BME280;33815;48.386;11.738;2023-04-05T09:38:00;96832.09;;;5.89;42.20
48041;BME280;33815;48.386;11.738;2023-04-05T09:40:45;96820.53;;;6.95;40.36
48041;BME280;33815;48.386;11.738;2023-04-05T09:43:12;96825.53;;;7.19;39.95
48041;BME280;33815;48.386;11.738;2023-04-05T09:45:39;96824.03;;;7.49;40.92
48041;BME280;33815;48.386;11.738;2023-04-05T09:48:06;96817.69;;;7.42;40.00
48041;BME280;33815;48.386;11.738;2023-04-05T09:50:31;96825.19;;;6.80;40.68
48041;BME280;33815;48.386;11.738;2023-04-05T09:53:09;96832.97;;;7.24;43.74
48041;BME280;33815;48.386;11.738;2023-04-05T09:55:39;96825.75;;;8.02;40.43
48041;BME280;33815;48.386;11.738;2023-04-05T09:58:17;96822.88;;;8.05;40.48
48041;BME280;33815;48.386;11.738;2023-04-05T10:00:50;96811.78;;;8.55;37.75
48041;BME280;33815;48.386;11.738;2023-04-05T10:03:19;96811.22;;;8.52;37.66
48041;BME280;33815;48.386;11.738;2023-04-05T10:05:45;96818.44;;;8.89;39.98
48041;BME280;33815;48.386;11.738;2023-04-05T10:08:13;96774.22;;;8.69;37.95
48041;BME280;33815;48.386;11.738;2023-04-05T10:10:45;96811.78;;;9.25;39.17
48041;BME280;33815;48.386;11.738;2023-04-05T10:13:11;96800.00;;;9.41;37.85
48041;BME280;33815;48.386;11.738;2023-04-05T10:15:37;96778.34;;;8.82;36.39
48041;BME280;33815;48.386;11.738;2023-04-05T10:18:12;96803.84;;;8.98;36.72
48041;BME280;33815;48.386;11.738;2023-04-05T10:20:39;96802.56;;;9.02;37.44
48041;BME280;33815;48.386;11.738;2023-04-05T10:23:07;96807.81;;;9.41;40.53
48041;BME280;33815;48.386;11.738;2023-04-05T10:30:50;96798.03;;;7.07;36.68
48041;BME280;33815;48.386;11.738;2023-04-05T10:33:21;96797.31;;;7.59;36.90
48041;BME280;33815;48.386;11.738;2023-04-05T10:35:55;96794.59;;;7.60;36.43
48041;BME280;33815;48.386;11.738;2023-04-05T10:38:26;96790.03;;;7.31;37.29
48041;BME280;33815;48.386;11.738;2023-04-05T10:40:54;96803.84;;;7.53;40.51
48041;BME280;33815;48.386;11.738;2023-04-05T10:43:23;96802.06;;;7.32;38.16
48041;BME280;33815;48.386;11.738;2023-04-05T10:45:52;96804.97;;;6.51;38.93
48041;BME280;33815;48.386;11.738;2023-04-05T10:48:32;96775.47;;;5.51;39.42
48041;BME280;33815;48.386;11.738;2023-04-05T10:50:59;96814.94;;;5.53;41.01
48041;BME280;33815;48.386;11.738;2023-04-05T10:53:25;96812.06;;;5.80;42.12
48041;BME280;33815;48.386;11.738;2023-04-05T10:55:52;96810.84;;;6.08;42.57
48041;BME280;33815;48.386;11.738;2023-04-05T10:58:20;96810.28;;;6.05;41.95
48041;BME280;33815;48.386;11.738;2023-04-05T11:00:47;96807.81;;;6.48;43.31
48041;BME280;33815;48.386;11.738;2023-04-05T11:06:20;96775.03;;;7.98;36.42
48041;BME280;33815;48.386;11.738;2023-04-05T11:08:49;96777.81;;;8.88;37.27
48041;BME280;33815;48.386;11.738;2023-04-05T11:11:16;96773.75;;;9.15;37.96
48041;BME280;33815;48.386;11.738;2023-04-05T11:13:50;96763.66;;;9.78;35.89
48041;BME280;33815;48.386;11.738;2023-04-05T11:16:16;96767.44;;;10.04;36.84
48041;BME280;33815;48.386;11.738;2023-04-05T11:18:51;96765.75;;;10.50;35.25
48041;BME280;33815;48.386;11.738;2023-04-05T11:21:24;96760.56;;;10.96;34.82
48041;BME280;33815;48.386;11.738;2023-04-05T11:24:06;96754.19;;;10.35;34.56
48041;BME280;33815;48.386;11.738;2023-04-05T11:29:06;96734.78;;;10.09;35.94
48041;BME280;33815;48.386;11.738;2023-04-05T11:31:32;96736.78;;;10.35;35.99
48041;BME280;33815;48.386;11.738;2023-04-05T11:34:05;96760.69;;;9.64;35.04
48041;BME280;33815;48.386;11.738;2023-04-05T11:36:44;96760.00;;;8.83;35.07
48041;BME280;33815;48.386;11.738;2023-04-05T11:41:44;96750.09;;;8.48;34.92
48041;BME280;33815;48.386;11.738;2023-04-05T11:44:14;96755.53;;;9.34;40.49
48041;BME280;33815;48.386;11.738;2023-04-05T11:46:41;96754.84;;;9.03;38.53
48041;BME280;33815;48.386;11.738;2023-04-05T11:49:06;96723.25;;;7.45;35.16
48041;BME280;33815;48.386;11.738;2023-04-05T11:51:32;96756.59;;;7.49;37.52
48041;BME280;33815;48.386;11.738;2023-04-05T11:53:57;96737.78;;;7.15;37.49
48041;BME280;33815;48.386;11.738;2023-04-05T11:56:23;96759.91;;;7.19;39.16
48041;BME280;33815;48.386;11.738;2023-04-05T11:58:48;96763.78;;;6.92;38.94
48041;BME280;33815;48.386;11.738;2023-04-05T12:01:13;96767.75;;;7.08;43.02
48041;BME280;33815;48.386;11.738;2023-04-05T12:03:39;96772.53;;;7.12;40.07
48041;BME280;33815;48.386;11.738;2023-04-05T12:06:05;96761.91;;;6.28;39.85
48041;BME280;33815;48.386;11.738;2023-04-05T12:08:42;96765.72;;;5.54;40.72
48041;BME280;33815;48.386;11.738;2023-04-05T12:11:14;96761.69;;;6.08;44.47
48041;BME280;33815;48.386;11.738;2023-04-05T12:13:39;96765.59;;;6.80;40.62
48041;BME280;33815;48.386;11.738;2023-04-05T12:16:06;96756.13;;;7.86;42.98
48041;BME280;33815;48.386;11.738;2023-04-05T12:18:34;96748.00;;;8.41;40.24
48041;BME280;33815;48.386;11.738;2023-04-05T12:21:04;96754.03;;;9.12;41.25
48041;BME280;33815;48.386;11.738;2023-04-05T12:23:30;96742.34;;;9.65;35.32
48041;BME280;33815;48.386;11.738;2023-04-05T12:25:56;96725.81;;;9.07;34.33
48041;BME280;33815;48.386;11.738;2023-04-05T12:28:22;96733.84;;;9.53;37.12
48041;BME280;33815;48.386;11.738;2023-04-05T12:30:56;96703.06;;;10.24;36.46
48041;BME280;33815;48.386;11.738;2023-04-05T12:33:29;96728.31;;;10.97;35.39
48041;BME280;33815;48.386;11.738;2023-04-05T12:35:56;96719.56;;;11.06;35.34
48041;BME280;33815;48.386;11.738;2023-04-05T12:38:25;96720.25;;;11.08;34.97
48041;BME280;33815;48.386;11.738;2023-04-05T12:40:52;96706.75;;;9.56;32.85
48041;BME280;33815;48.386;11.738;2023-04-05T12:43:17;96718.50;;;9.60;36.07
48041;BME280;33815;48.386;11.738;2023-04-05T12:45:46;96720.56;;;10.04;35.52
48041;BME280;33815;48.386;11.738;2023-04-05T12:48:19;96719.94;;;10.75;36.64
48041;BME280;33815;48.386;11.738;2023-04-05T12:50:47;96704.53;;;10.36;33.15
48041;BME280;33815;48.386;11.738;2023-04-05T12:53:17;96706.22;;;9.90;34.25
48041;BME280;33815;48.386;11.738;2023-04-05T12:55:54;96701.56;;;9.36;34.67
48041;BME280;33815;48.386;11.738;2023-04-05T12:58:22;96710.50;;;9.04;35.13
48041;BME280;33815;48.386;11.738;2023-04-05T13:00:48;96713.38;;;8.21;36.15
48041;BME280;33815;48.386;11.738;2023-04-05T13:03:18;96682.13;;;7.61;36.60
48041;BME280;33815;48.386;11.738;2023-04-05T13:05:45;96706.94;;;7.33;35.81
48041;BME280;33815;48.386;11.738;2023-04-05T13:08:11;96708.94;;;7.29;37.42
48041;BME280;33815;48.386;11.738;2023-04-05T13:10:36;96715.47;;;8.37;39.69